Time;durP1;ratioP1;P1;durP2;ratioP2;P2;SDS_P1;SDS_P2;PMS_P1;PMS_P2;Temp;Humidity;BMP_temperature;BMP_pressure;BME280_temperature;BME280_humidity;BME280_pressure;Samples;Min_cycle;Max_cycle;Signal;HPM_P1;HPM_P2
2022/06/16 00:00:09;;;;;;;7.50;6.90;;;;;;;;;;5077342;28;24549;-47
2022/06/16 00:02:47;;;;;;;7.60;7.00;;;;;;;;;;5069870;28;24433;-47
2022/06/16 00:05:14;;;;;;;7.53;7.00;;;;;;;;;;5067167;28;24559;-47
2022/06/16 00:07:39;;;;;;;8.13;7.53;;;;;;;;;;5068231;28;24407;-47
2022/06/16 00:10:05;;;;;;;7.53;6.93;;;;;;;;;;5078898;28;24567;-47
2022/06/16 00:12:30;;;;;;;8.15;7.55;;;;;;;;;;5066477;28;24438;-46
2022/06/16 00:14:55;;;;;;;8.07;7.47;;;;;;;;;;5079542;28;24488;-46
2022/06/16 00:17:21;;;;;;;7.70;7.00;;;;;;;;;;5077983;28;25133;-47
2022/06/16 00:19:46;;;;;;;7.43;6.93;;;;;;;;;;5079649;28;24870;-50
2022/06/16 00:22:11;;;;;;;7.70;7.10;;;;;;;;;;5075672;28;24422;-47
2022/06/16 00:24:36;;;;;;;8.18;7.47;;;;;;;;;;5076757;28;25043;-47
2022/06/16 00:27:01;;;;;;;7.63;7.13;;;;;;;;;;5070872;28;24415;-47
2022/06/16 00:29:27;;;;;;;7.40;6.80;;;;;;;;;;5074797;28;24425;-47
2022/06/16 00:31:52;;;;;;;7.75;7.15;;;;;;;;;;5068472;28;24444;-47
2022/06/16 00:34:17;;;;;;;7.90;7.40;;;;;;;;;;5069077;28;24472;-46
2022/06/16 00:36:42;;;;;;;8.70;7.90;;;;;;;;;;5068310;28;24968;-46
2022/06/16 00:39:08;;;;;;;8.10;7.50;;;;;;;;;;5072947;28;25002;-47
2022/06/16 00:41:33;;;;;;;8.10;7.60;;;;;;;;;;5066560;28;24426;-46
2022/06/16 00:44:01;;;;;;;7.50;7.00;;;;;;;;;;5065189;28;24441;-46
2022/06/16 00:46:29;;;;;;;7.97;7.38;;;;;;;;;;5082277;28;24518;-46
2022/06/16 00:48:56;;;;;;;8.30;7.70;;;;;;;;;;5082406;28;24419;-46
2022/06/16 00:51:40;;;;;;;7.47;6.88;;;;;;;;;;5077293;28;24823;-46
2022/06/16 00:54:08;;;;;;;7.70;7.10;;;;;;;;;;5064853;28;24434;-47
2022/06/16 00:56:34;;;;;;;8.18;7.63;;;;;;;;;;5067888;28;24417;-47
2022/06/16 00:59:02;;;;;;;7.73;7.13;;;;;;;;;;5074110;28;24427;-46
2022/06/16 01:01:28;;;;;;;7.68;7.18;;;;;;;;;;5066126;28;24983;-47
2022/06/16 01:06:38;;;;;;;8.70;8.10;;;;;;;;;;5073714;28;25034;-46
2022/06/16 01:09:09;;;;;;;8.20;7.70;;;;;;;;;;5072816;28;24449;-46
2022/06/16 01:14:56;;;;;;;7.43;6.82;;;;;;;;;;5062554;28;25039;-47
2022/06/16 01:17:29;;;;;;;7.72;7.20;;;;;;;;;;5079695;28;26242;-46
2022/06/16 01:20:17;;;;;;;7.75;7.15;;;;;;;;;;5067115;28;24473;-47
2022/06/16 01:22:45;;;;;;;8.30;7.60;;;;;;;;;;5055970;28;24423;-46
2022/06/16 01:25:25;;;;;;;7.72;7.20;;;;;;;;;;5074709;28;24492;-47
2022/06/16 01:27:51;;;;;;;7.60;7.10;;;;;;;;;;5063239;28;24493;-48
2022/06/16 01:30:19;;;;;;;8.27;7.57;;;;;;;;;;5064142;28;24423;-46
2022/06/16 01:32:50;;;;;;;7.53;7.03;;;;;;;;;;5065115;28;24407;-47
2022/06/16 01:35:22;;;;;;;7.65;7.05;;;;;;;;;;5066711;28;25011;-46
2022/06/16 01:37:53;;;;;;;8.07;7.47;;;;;;;;;;5072952;28;24782;-46
2022/06/16 01:40:22;;;;;;;8.05;7.45;;;;;;;;;;5063381;28;25059;-47
2022/06/16 01:42:49;;;;;;;9.05;8.35;;;;;;;;;;5071053;28;24526;-47
2022/06/16 01:45:22;;;;;;;7.90;7.40;;;;;;;;;;5065236;28;24454;-47
2022/06/16 01:47:49;;;;;;;8.00;7.40;;;;;;;;;;5069302;28;25389;-46
2022/06/16 01:50:18;;;;;;;7.60;7.00;;;;;;;;;;5076199;28;24430;-46
2022/06/16 01:53:09;;;;;;;7.30;6.80;;;;;;;;;;5076973;28;24410;-46
2022/06/16 01:55:37;;;;;;;7.10;6.60;;;;;;;;;;5061018;28;24430;-46
2022/06/16 01:58:19;;;;;;;7.63;7.03;;;;;;;;;;5065825;28;24425;-46
2022/06/16 02:00:45;;;;;;;7.50;6.93;;;;;;;;;;5070196;28;24784;-46
2022/06/16 02:03:12;;;;;;;7.95;7.35;;;;;;;;;;5054273;28;24426;-48
2022/06/16 02:05:44;;;;;;;7.90;7.25;;;;;;;;;;5068372;28;24437;-47
2022/06/16 02:08:15;;;;;;;8.00;7.40;;;;;;;;;;5079170;28;24418;-47
2022/06/16 02:10:42;;;;;;;8.45;7.75;;;;;;;;;;5070591;28;24429;-47
2022/06/16 02:13:09;;;;;;;8.50;7.80;;;;;;;;;;5066821;28;24765;-47
2022/06/16 02:15:38;;;;;;;9.40;8.70;;;;;;;;;;5065656;28;24448;-47
2022/06/16 02:18:05;;;;;;;9.38;8.57;;;;;;;;;;5054236;28;24850;-47
2022/06/16 02:20:37;;;;;;;8.60;8.00;;;;;;;;;;5072885;28;24584;-47
2022/06/16 02:23:03;;;;;;;9.73;9.02;;;;;;;;;;5076339;28;24451;-47
2022/06/16 02:25:28;;;;;;;8.30;7.60;;;;;;;;;;5065163;28;24407;-47
2022/06/16 02:27:53;;;;;;;8.18;7.47;;;;;;;;;;5070439;28;24832;-47
2022/06/16 02:30:18;;;;;;;8.68;8.07;;;;;;;;;;5064514;28;24425;-47
2022/06/16 02:32:51;;;;;;;8.30;7.70;;;;;;;;;;5065083;28;24820;-47
2022/06/16 02:35:23;;;;;;;8.30;7.70;;;;;;;;;;5063492;28;24425;-47
2022/06/16 02:38:07;;;;;;;8.77;8.18;;;;;;;;;;5058778;28;24439;-47
2022/06/16 02:40:41;;;;;;;9.00;8.20;;;;;;;;;;5061342;28;24427;-47
2022/06/16 02:43:12;;;;;;;8.98;8.18;;;;;;;;;;5061459;28;24422;-47
2022/06/16 02:45:40;;;;;;;8.68;8.00;;;;;;;;;;5064711;28;24436;-47
2022/06/16 02:48:18;;;;;;;8.80;8.10;;;;;;;;;;5070556;28;24414;-47
2022/06/16 02:50:52;;;;;;;8.60;8.00;;;;;;;;;;5063533;28;24422;-47
2022/06/16 02:53:18;;;;;;;8.37;7.77;;;;;;;;;;5060740;28;24422;-47
2022/06/16 02:55:47;;;;;;;9.10;8.40;;;;;;;;;;5068834;28;24425;-47
2022/06/16 02:58:16;;;;;;;8.40;7.80;;;;;;;;;;5062651;28;24430;-47
2022/06/16 03:00:43;;;;;;;8.70;8.10;;;;;;;;;;5071345;28;24471;-47
2022/06/16 03:03:16;;;;;;;8.30;7.60;;;;;;;;;;5061840;28;24517;-47
2022/06/16 03:05:41;;;;;;;8.50;7.80;;;;;;;;;;5064024;28;24415;-47
2022/06/16 03:08:06;;;;;;;8.20;7.50;;;;;;;;;;5059936;28;24445;-47
2022/06/16 03:13:15;;;;;;;9.07;8.27;;;;;;;;;;5061500;28;24772;-48
2022/06/16 03:15:40;;;;;;;9.50;8.70;;;;;;;;;;5076597;28;24422;-49
2022/06/16 03:18:05;;;;;;;8.88;8.10;;;;;;;;;;5073885;28;24415;-48
2022/06/16 03:20:30;;;;;;;9.10;8.37;;;;;;;;;;5066106;28;24414;-47
2022/06/16 03:22:55;;;;;;;7.57;7.07;;;;;;;;;;5068641;28;24415;-48
2022/06/16 03:25:20;;;;;;;7.93;7.22;;;;;;;;;;5072044;28;24430;-47
2022/06/16 03:27:46;;;;;;;7.85;7.25;;;;;;;;;;5074358;28;24609;-48
2022/06/16 03:30:11;;;;;;;9.07;8.37;;;;;;;;;;5067738;28;24968;-47
2022/06/16 03:32:36;;;;;;;8.80;8.20;;;;;;;;;;5069273;28;24421;-47
2022/06/16 03:35:01;;;;;;;8.60;7.90;;;;;;;;;;5076948;28;24418;-47
2022/06/16 03:37:26;;;;;;;8.82;8.05;;;;;;;;;;5085174;28;24421;-48
2022/06/16 03:39:51;;;;;;;8.10;7.50;;;;;;;;;;5079609;28;24782;-47
2022/06/16 03:42:16;;;;;;;8.80;8.00;;;;;;;;;;5074308;28;24423;-47
2022/06/16 03:44:42;;;;;;;8.55;7.85;;;;;;;;;;5066865;28;24537;-48
2022/06/16 03:47:08;;;;;;;7.80;7.20;;;;;;;;;;5075021;28;25014;-47
2022/06/16 03:49:33;;;;;;;8.40;7.70;;;;;;;;;;5080913;28;24421;-47
2022/06/16 03:51:58;;;;;;;8.95;8.15;;;;;;;;;;5067592;28;24411;-48
2022/06/16 03:54:23;;;;;;;8.85;8.25;;;;;;;;;;5070500;28;24541;-48
2022/06/16 03:56:48;;;;;;;9.63;8.73;;;;;;;;;;5081552;28;24434;-48
2022/06/16 03:59:13;;;;;;;8.47;7.87;;;;;;;;;;5085277;28;24547;-48
2022/06/16 04:01:38;;;;;;;9.27;8.57;;;;;;;;;;5075386;28;25413;-47
2022/06/16 04:04:05;;;;;;;8.80;8.10;;;;;;;;;;5069239;28;24786;-47
2022/06/16 04:06:35;;;;;;;8.27;7.70;;;;;;;;;;5080722;28;24414;-48
2022/06/16 04:09:00;;;;;;;7.20;6.70;;;;;;;;;;5083337;28;24422;-47
2022/06/16 04:11:30;;;;;;;8.03;7.43;;;;;;;;;;5073429;28;25319;-48
2022/06/16 04:14:04;;;;;;;8.70;8.00;;;;;;;;;;5077072;28;24460;-47
2022/06/16 04:16:33;;;;;;;7.82;7.22;;;;;;;;;;5077662;28;24431;-47
2022/06/16 04:18:59;;;;;;;7.50;6.90;;;;;;;;;;5072402;28;24520;-47
2022/06/16 04:21:24;;;;;;;7.40;6.70;;;;;;;;;;5073576;28;24427;-48
2022/06/16 04:23:49;;;;;;;7.10;6.60;;;;;;;;;;5077364;28;24458;-47
2022/06/16 04:26:15;;;;;;;7.47;6.77;;;;;;;;;;5060326;28;25028;-47
2022/06/16 04:28:40;;;;;;;7.20;6.60;;;;;;;;;;5086253;28;24422;-47
2022/06/16 04:31:05;;;;;;;7.28;6.57;;;;;;;;;;5084993;28;24867;-47
2022/06/16 04:33:30;;;;;;;7.68;6.85;;;;;;;;;;5080960;28;24968;-48
2022/06/16 04:35:56;;;;;;;7.40;6.90;;;;;;;;;;5070762;28;24442;-46
2022/06/16 04:38:21;;;;;;;7.70;7.10;;;;;;;;;;5058535;28;24429;-46
2022/06/16 04:40:46;;;;;;;7.40;6.90;;;;;;;;;;5071219;28;24488;-46
2022/06/16 04:43:14;;;;;;;6.95;6.35;;;;;;;;;;5057766;28;24521;-46
2022/06/16 04:45:40;;;;;;;7.10;6.50;;;;;;;;;;5065866;28;24514;-47
2022/06/16 04:48:05;;;;;;;7.68;7.03;;;;;;;;;;5071268;28;24479;-47
2022/06/16 04:50:30;;;;;;;7.57;6.87;;;;;;;;;;5059720;28;24423;-46
2022/06/16 04:52:55;;;;;;;6.80;6.30;;;;;;;;;;5055569;28;24483;-46
2022/06/16 04:55:20;;;;;;;6.57;6.07;;;;;;;;;;5063646;28;24785;-47
2022/06/16 04:57:46;;;;;;;6.70;6.20;;;;;;;;;;5077444;28;24542;-46
2022/06/16 05:00:13;;;;;;;7.37;6.77;;;;;;;;;;5059040;28;25198;-47
2022/06/16 05:02:38;;;;;;;6.70;6.10;;;;;;;;;;5064232;28;24411;-47
2022/06/16 05:05:03;;;;;;;7.00;6.40;;;;;;;;;;5055946;28;25036;-47
2022/06/16 05:07:28;;;;;;;7.10;6.50;;;;;;;;;;5062627;28;24423;-47
2022/06/16 05:09:53;;;;;;;7.60;7.00;;;;;;;;;;5068940;28;24857;-47
2022/06/16 05:12:18;;;;;;;7.53;6.93;;;;;;;;;;5078105;28;24421;-47
2022/06/16 05:14:44;;;;;;;7.38;6.78;;;;;;;;;;5067103;28;24422;-47
2022/06/16 05:17:09;;;;;;;7.00;6.50;;;;;;;;;;5071869;28;24434;-47
2022/06/16 05:19:34;;;;;;;7.10;6.50;;;;;;;;;;5069178;28;25050;-47
2022/06/16 05:22:00;;;;;;;8.32;7.65;;;;;;;;;;5066251;28;24510;-47
2022/06/16 05:24:26;;;;;;;7.20;6.60;;;;;;;;;;5061381;28;24557;-47
2022/06/16 05:26:52;;;;;;;6.95;5.75;;;;;;;;;;5048102;28;25071;-46
2022/06/16 05:29:19;;;;;;;6.20;5.73;;;;;;;;;;5047756;28;24402;-46
2022/06/16 05:31:44;;;;;;;6.80;6.20;;;;;;;;;;5054058;28;24476;-47
2022/06/16 05:34:09;;;;;;;6.80;6.20;;;;;;;;;;5067794;28;24411;-47
2022/06/16 05:36:34;;;;;;;7.47;6.53;;;;;;;;;;5067570;28;24937;-47
2022/06/16 05:38:59;;;;;;;6.43;5.93;;;;;;;;;;5067238;28;24397;-47
2022/06/16 05:41:24;;;;;;;6.50;6.00;;;;;;;;;;5066071;28;24441;-46
2022/06/16 05:43:49;;;;;;;6.40;5.90;;;;;;;;;;5063120;28;24437;-46
2022/06/16 05:46:19;;;;;;;6.65;6.05;;;;;;;;;;5065800;28;24537;-46
2022/06/16 05:48:44;;;;;;;6.90;6.30;;;;;;;;;;5065100;28;24421;-46
2022/06/16 05:51:11;;;;;;;6.70;6.20;;;;;;;;;;5064964;28;24423;-48
2022/06/16 05:53:36;;;;;;;6.22;5.72;;;;;;;;;;5071728;28;24437;-46
2022/06/16 05:56:01;;;;;;;6.32;5.82;;;;;;;;;;5081746;28;24432;-45
2022/06/16 05:58:27;;;;;;;5.70;5.30;;;;;;;;;;5073805;28;24457;-47
2022/06/16 06:00:52;;;;;;;5.97;5.43;;;;;;;;;;5076150;28;24443;-46
2022/06/16 06:03:17;;;;;;;6.50;6.00;;;;;;;;;;5074895;28;24427;-46
2022/06/16 06:05:42;;;;;;;6.20;5.70;;;;;;;;;;5068160;28;24842;-46
2022/06/16 06:16:25;;;;;;;5.50;5.10;;;;;;;;;;5082496;28;24571;-46
2022/06/16 06:18:51;;;;;;;5.80;5.40;;;;;;;;;;5069861;28;24441;-47
2022/06/16 06:21:17;;;;;;;5.40;5.07;;;;;;;;;;5082958;28;24461;-47
2022/06/16 06:23:42;;;;;;;5.72;5.30;;;;;;;;;;5086582;28;24421;-47
2022/06/16 06:26:09;;;;;;;5.67;5.30;;;;;;;;;;5086300;28;24480;-47
2022/06/16 06:28:34;;;;;;;5.30;4.90;;;;;;;;;;5080293;28;24426;-46
2022/06/16 06:30:59;;;;;;;6.00;5.60;;;;;;;;;;5078039;28;24414;-46
2022/06/16 06:33:25;;;;;;;6.70;5.55;;;;;;;;;;5083139;28;24433;-47
2022/06/16 06:35:50;;;;;;;5.20;4.80;;;;;;;;;;5075895;28;25061;-47
2022/06/16 06:38:15;;;;;;;5.40;5.00;;;;;;;;;;5079836;28;24425;-47
2022/06/16 06:40:40;;;;;;;5.72;5.32;;;;;;;;;;5074570;28;24428;-47
2022/06/16 06:43:05;;;;;;;5.80;5.40;;;;;;;;;;5055866;28;24820;-48
2022/06/16 06:45:31;;;;;;;6.03;5.63;;;;;;;;;;5044841;28;24442;-47
2022/06/16 06:47:56;;;;;;;6.93;6.33;;;;;;;;;;5061528;28;24499;-48
2022/06/16 06:50:23;;;;;;;6.38;5.88;;;;;;;;;;5066351;28;24509;-48
2022/06/16 06:52:49;;;;;;;6.55;6.05;;;;;;;;;;5070326;28;24407;-46
2022/06/16 06:55:15;;;;;;;6.60;6.00;;;;;;;;;;5070973;28;24406;-46
2022/06/16 06:57:40;;;;;;;6.40;5.80;;;;;;;;;;5070798;28;25015;-47
2022/06/16 07:00:05;;;;;;;6.57;5.97;;;;;;;;;;5069546;28;25037;-46
2022/06/16 07:02:30;;;;;;;6.53;6.03;;;;;;;;;;5070701;28;24481;-46
2022/06/16 07:04:56;;;;;;;6.88;6.07;;;;;;;;;;5070722;28;24780;-47
2022/06/16 07:07:22;;;;;;;6.65;6.05;;;;;;;;;;5070904;28;24522;-46
2022/06/16 07:09:47;;;;;;;6.30;5.90;;;;;;;;;;5070446;28;24418;-47
2022/06/16 07:12:16;;;;;;;6.35;5.85;;;;;;;;;;5068553;28;24909;-46
2022/06/16 07:14:44;;;;;;;6.57;6.07;;;;;;;;;;5070651;28;24921;-47
2022/06/16 07:17:10;;;;;;;6.70;6.20;;;;;;;;;;5070376;28;24414;-46
2022/06/16 07:19:35;;;;;;;6.37;5.87;;;;;;;;;;5070390;28;24410;-47
2022/06/16 07:22:01;;;;;;;6.07;5.53;;;;;;;;;;5069628;28;24453;-47
2022/06/16 07:24:26;;;;;;;6.57;6.07;;;;;;;;;;5070276;28;24419;-47
2022/06/16 07:26:51;;;;;;;7.27;6.20;;;;;;;;;;5070439;28;24395;-47
2022/06/16 07:29:16;;;;;;;6.88;6.07;;;;;;;;;;5069843;28;24386;-47
2022/06/16 07:31:41;;;;;;;6.97;5.75;;;;;;;;;;5069644;28;24487;-47
2022/06/16 07:34:07;;;;;;;6.50;6.00;;;;;;;;;;5070087;28;24909;-47
2022/06/16 07:36:32;;;;;;;7.83;7.10;;;;;;;;;;5070454;28;24437;-47
2022/06/16 07:38:57;;;;;;;6.50;6.00;;;;;;;;;;5069886;28;24536;-47
2022/06/16 07:41:31;;;;;;;6.60;6.10;;;;;;;;;;5070205;28;24778;-46
2022/06/16 07:43:57;;;;;;;6.18;5.78;;;;;;;;;;5061409;28;24457;-48
2022/06/16 07:46:22;;;;;;;6.90;6.40;;;;;;;;;;5060901;28;24754;-47
2022/06/16 07:48:47;;;;;;;7.53;6.80;;;;;;;;;;5066825;28;24445;-47
2022/06/16 07:51:12;;;;;;;7.80;7.13;;;;;;;;;;5067496;28;24448;-48
2022/06/16 07:53:37;;;;;;;8.05;7.35;;;;;;;;;;5065847;28;24433;-48
2022/06/16 07:56:02;;;;;;;6.83;6.33;;;;;;;;;;5068156;28;24936;-47
2022/06/16 07:58:31;;;;;;;7.00;6.50;;;;;;;;;;5066904;28;24429;-47
2022/06/16 08:00:56;;;;;;;8.60;7.90;;;;;;;;;;5067611;28;24472;-48
2022/06/16 08:03:26;;;;;;;7.00;6.30;;;;;;;;;;5064365;28;24423;-46
2022/06/16 08:05:51;;;;;;;6.75;6.25;;;;;;;;;;5066615;28;24419;-47
2022/06/16 08:08:16;;;;;;;6.33;5.83;;;;;;;;;;5066438;28;24437;-47
2022/06/16 08:10:41;;;;;;;6.30;5.80;;;;;;;;;;5068594;28;24573;-46
2022/06/16 08:13:08;;;;;;;7.07;6.30;;;;;;;;;;5060779;28;24411;-46
2022/06/16 08:15:33;;;;;;;6.90;6.20;;;;;;;;;;5060558;28;24441;-48
2022/06/16 08:17:58;;;;;;;6.90;6.30;;;;;;;;;;5066926;28;24411;-47
2022/06/16 08:20:23;;;;;;;7.23;6.63;;;;;;;;;;5068492;28;24448;-47
2022/06/16 08:22:49;;;;;;;7.20;6.60;;;;;;;;;;5066391;28;24453;-47
2022/06/16 08:25:15;;;;;;;6.68;6.00;;;;;;;;;;5066257;28;24929;-45
2022/06/16 08:27:42;;;;;;;5.95;5.45;;;;;;;;;;5059212;28;24420;-46
2022/06/16 08:30:09;;;;;;;8.55;7.35;;;;;;;;;;5066808;28;24413;-46
2022/06/16 08:32:34;;;;;;;6.53;6.03;;;;;;;;;;5060099;28;24427;-46
2022/06/16 08:35:00;;;;;;;7.50;6.90;;;;;;;;;;5048047;28;24442;-46
2022/06/16 08:37:25;;;;;;;6.47;5.87;;;;;;;;;;5048161;28;24399;-46
2022/06/16 08:39:50;;;;;;;6.20;5.70;;;;;;;;;;5060534;28;24496;-47
2022/06/16 08:42:32;;;;;;;7.20;6.30;;;;;;;;;;5067787;28;24403;-47
2022/06/16 08:45:26;;;;;;;6.43;5.82;;;;;;;;;;5008107;28;1695467;-48
2022/06/16 08:48:04;;;;;;;7.85;7.15;;;;;;;;;;5059399;28;24423;-48
2022/06/16 08:50:29;;;;;;;7.28;6.60;;;;;;;;;;5067172;28;24479;-47
2022/06/16 08:53:12;;;;;;;6.40;5.80;;;;;;;;;;5068105;28;24452;-46
2022/06/16 08:55:48;;;;;;;6.82;6.30;;;;;;;;;;5068306;28;24759;-46
2022/06/16 08:58:29;;;;;;;6.80;6.30;;;;;;;;;;5067219;28;24482;-47
2022/06/16 09:00:58;;;;;;;6.72;6.13;;;;;;;;;;5065653;28;24510;-47
2022/06/16 09:03:42;;;;;;;6.50;6.00;;;;;;;;;;5068405;28;24498;-48
2022/06/16 09:06:22;;;;;;;6.20;5.80;;;;;;;;;;5067258;28;24939;-46
2022/06/16 09:08:53;;;;;;;7.40;6.80;;;;;;;;;;5068591;28;24880;-46
2022/06/16 09:11:18;;;;;;;7.72;7.03;;;;;;;;;;5066344;28;24414;-47
2022/06/16 09:13:43;;;;;;;6.70;6.20;;;;;;;;;;5067393;28;24417;-46
2022/06/16 09:16:19;;;;;;;6.20;5.80;;;;;;;;;;5066613;28;24987;-46
2022/06/16 09:18:56;;;;;;;7.60;6.90;;;;;;;;;;5068260;28;24409;-46
2022/06/16 09:21:25;;;;;;;6.00;5.50;;;;;;;;;;5067861;28;24626;-46
2022/06/16 09:23:53;;;;;;;6.43;5.93;;;;;;;;;;5068087;28;24494;-46
2022/06/16 09:26:18;;;;;;;6.20;5.70;;;;;;;;;;5066389;28;24419;-46
2022/06/16 09:28:47;;;;;;;7.57;6.05;;;;;;;;;;5068025;28;24497;-46
2022/06/16 09:31:16;;;;;;;6.40;5.80;;;;;;;;;;5068170;28;24387;-46
2022/06/16 09:33:47;;;;;;;6.50;6.00;;;;;;;;;;5066375;28;25053;-46
2022/06/16 09:36:16;;;;;;;6.00;5.60;;;;;;;;;;5067856;28;24418;-47
2022/06/16 09:38:50;;;;;;;6.10;5.55;;;;;;;;;;5067905;28;24389;-46
2022/06/16 09:44:09;;;;;;;6.47;5.88;;;;;;;;;;5066264;28;24453;-47
2022/06/16 09:46:36;;;;;;;5.90;5.40;;;;;;;;;;5067378;28;24417;-48
2022/06/16 09:49:08;;;;;;;5.82;5.43;;;;;;;;;;5067636;28;24941;-47
2022/06/16 09:51:36;;;;;;;6.13;5.63;;;;;;;;;;5067815;28;24413;-46
2022/06/16 09:54:10;;;;;;;6.45;5.85;;;;;;;;;;5065184;28;24468;-46
2022/06/16 09:56:40;;;;;;;5.88;5.13;;;;;;;;;;5067403;28;24391;-46
2022/06/16 09:59:10;;;;;;;6.50;5.95;;;;;;;;;;5064780;28;25127;-46
2022/06/16 10:01:38;;;;;;;6.30;5.80;;;;;;;;;;5067514;28;24402;-46
2022/06/16 10:04:07;;;;;;;6.25;5.75;;;;;;;;;;5063777;28;24442;-46
2022/06/16 10:06:53;;;;;;;6.50;5.90;;;;;;;;;;5064892;28;24944;-46
2022/06/16 10:09:23;;;;;;;7.30;6.70;;;;;;;;;;5065221;28;24451;-46
2022/06/16 10:11:48;;;;;;;6.10;5.70;;;;;;;;;;5066611;28;24437;-46
2022/06/16 10:14:20;;;;;;;6.15;5.65;;;;;;;;;;5065570;28;24976;-46
2022/06/16 10:16:52;;;;;;;6.20;5.70;;;;;;;;;;5065546;28;24454;-46
2022/06/16 10:19:18;;;;;;;6.30;5.70;;;;;;;;;;5059734;28;24462;-47
2022/06/16 10:21:43;;;;;;;6.13;5.68;;;;;;;;;;5066923;28;24489;-46
2022/06/16 10:24:09;;;;;;;7.67;6.30;;;;;;;;;;5046503;28;24514;-46
2022/06/16 10:26:35;;;;;;;5.28;4.78;;;;;;;;;;5048006;28;24454;-46
2022/06/16 10:29:00;;;;;;;6.20;5.68;;;;;;;;;;5067109;28;24912;-47
2022/06/16 10:31:36;;;;;;;6.57;5.63;;;;;;;;;;5065710;28;24402;-46
2022/06/16 10:34:03;;;;;;;6.20;5.70;;;;;;;;;;5060958;28;25005;-46
2022/06/16 10:36:29;;;;;;;6.22;5.72;;;;;;;;;;5064669;28;24438;-46
2022/06/16 10:39:09;;;;;;;5.90;5.50;;;;;;;;;;5065664;28;24518;-46
2022/06/16 10:41:41;;;;;;;6.32;5.72;;;;;;;;;;5066554;28;24479;-46
2022/06/16 10:44:09;;;;;;;5.90;5.38;;;;;;;;;;5065620;28;24681;-47
2022/06/16 10:46:35;;;;;;;5.40;5.00;;;;;;;;;;5067006;28;24389;-47
2022/06/16 10:49:04;;;;;;;5.70;5.30;;;;;;;;;;5066847;28;24407;-47
2022/06/16 10:51:30;;;;;;;6.25;5.65;;;;;;;;;;5066477;28;24388;-46
2022/06/16 10:54:14;;;;;;;6.82;6.22;;;;;;;;;;5065429;28;24438;-48
2022/06/16 10:56:40;;;;;;;6.55;5.97;;;;;;;;;;5066909;28;24387;-46
2022/06/16 10:59:14;;;;;;;6.43;5.93;;;;;;;;;;5066780;28;24405;-47
2022/06/16 11:01:45;;;;;;;6.40;6.00;;;;;;;;;;5066992;28;24447;-46
2022/06/16 11:04:10;;;;;;;6.00;5.40;;;;;;;;;;5065342;28;24478;-45
2022/06/16 11:06:38;;;;;;;6.70;6.00;;;;;;;;;;5066440;28;24402;-46
2022/06/16 11:09:04;;;;;;;5.70;5.40;;;;;;;;;;5067107;28;24407;-47
2022/06/16 11:11:52;;;;;;;5.85;5.35;;;;;;;;;;5066785;28;25075;-47
2022/06/16 11:14:41;;;;;;;7.07;5.50;;;;;;;;;;5066664;28;24454;-47
2022/06/16 11:17:16;;;;;;;5.47;5.07;;;;;;;;;;5046828;28;24746;-47
2022/06/16 11:19:43;;;;;;;5.50;5.00;;;;;;;;;;5047147;28;24801;-47
2022/06/16 11:22:16;;;;;;;5.75;5.35;;;;;;;;;;5044504;28;24883;-47
2022/06/16 11:24:51;;;;;;;4.95;4.60;;;;;;;;;;5046336;28;24411;-47
2022/06/16 11:27:16;;;;;;;5.57;5.07;;;;;;;;;;5064308;28;24493;-48
2022/06/16 11:29:42;;;;;;;5.60;4.97;;;;;;;;;;5066828;28;24939;-47
2022/06/16 11:32:14;;;;;;;5.30;4.90;;;;;;;;;;5066551;28;24399;-48
2022/06/16 11:34:41;;;;;;;5.97;5.50;;;;;;;;;;5066655;28;24391;-48
2022/06/16 11:37:09;;;;;;;6.35;5.85;;;;;;;;;;5065509;28;24423;-47
2022/06/16 11:39:49;;;;;;;5.77;5.37;;;;;;;;;;5070191;28;24406;-47
2022/06/16 11:42:21;;;;;;;5.70;5.30;;;;;;;;;;5070028;28;24394;-47
2022/06/16 11:44:54;;;;;;;5.93;5.43;;;;;;;;;;5069963;28;24453;-47
2022/06/16 11:47:22;;;;;;;6.22;5.72;;;;;;;;;;5068970;28;24442;-46
2022/06/16 11:50:03;;;;;;;6.10;5.70;;;;;;;;;;5069939;28;24399;-47
2022/06/16 11:52:33;;;;;;;7.03;6.40;;;;;;;;;;5069856;28;25245;-47
2022/06/16 11:55:17;;;;;;;6.40;5.90;;;;;;;;;;5069993;28;24407;-47
2022/06/16 11:57:52;;;;;;;6.70;6.20;;;;;;;;;;5068185;28;24450;-47
2022/06/16 12:00:22;;;;;;;7.07;6.57;;;;;;;;;;5069625;28;24410;-46
2022/06/16 12:03:01;;;;;;;6.70;6.13;;;;;;;;;;5070080;28;24407;-46
2022/06/16 12:05:34;;;;;;;7.10;6.43;;;;;;;;;;5069566;28;24411;-46
2022/06/16 12:08:02;;;;;;;7.95;6.85;;;;;;;;;;5058794;28;24411;-47
2022/06/16 12:10:39;;;;;;;6.93;6.32;;;;;;;;;;5049308;28;24402;-46
2022/06/16 12:13:24;;;;;;;6.68;5.97;;;;;;;;;;5049384;28;24487;-46
2022/06/16 12:15:59;;;;;;;6.90;6.40;;;;;;;;;;5049669;28;24391;-46
2022/06/16 12:18:50;;;;;;;5.90;5.50;;;;;;;;;;5055191;28;24592;-47
2022/06/16 12:21:34;;;;;;;6.10;5.70;;;;;;;;;;5064878;28;24784;-47
2022/06/16 12:24:17;;;;;;;6.90;6.30;;;;;;;;;;5069022;28;25073;-46
2022/06/16 12:26:55;;;;;;;6.93;6.33;;;;;;;;;;5069442;28;24391;-46
2022/06/16 12:29:27;;;;;;;6.28;5.78;;;;;;;;;;5067118;28;24836;-46
2022/06/16 12:31:59;;;;;;;5.95;5.47;;;;;;;;;;5068785;28;24757;-46
2022/06/16 12:34:32;;;;;;;6.05;5.65;;;;;;;;;;5068904;28;24460;-46
2022/06/16 12:37:00;;;;;;;6.50;5.75;;;;;;;;;;5067478;28;24980;-46
2022/06/16 12:39:30;;;;;;;5.80;5.30;;;;;;;;;;5066793;28;24466;-46
2022/06/16 12:41:59;;;;;;;4.93;4.63;;;;;;;;;;5067203;28;24963;-46
2022/06/16 12:44:33;;;;;;;6.80;6.30;;;;;;;;;;5068223;28;24515;-47
2022/06/16 12:47:07;;;;;;;6.88;6.28;;;;;;;;;;5067305;28;24454;-48
2022/06/16 12:49:52;;;;;;;6.15;5.75;;;;;;;;;;5064741;28;24399;-47
2022/06/16 12:52:21;;;;;;;6.80;6.30;;;;;;;;;;5057158;28;24430;-46
2022/06/16 12:54:50;;;;;;;7.00;6.50;;;;;;;;;;5068265;28;24413;-46
2022/06/16 12:57:17;;;;;;;6.70;6.20;;;;;;;;;;5067127;28;24986;-47
2022/06/16 12:59:45;;;;;;;6.45;6.00;;;;;;;;;;5068581;28;24423;-46
2022/06/16 13:02:14;;;;;;;7.47;6.82;;;;;;;;;;5065164;28;24438;-46
2022/06/16 13:04:40;;;;;;;6.90;6.40;;;;;;;;;;5068234;28;24545;-46
2022/06/16 13:07:10;;;;;;;6.72;6.22;;;;;;;;;;5066831;28;24418;-45
2022/06/16 13:09:35;;;;;;;6.88;6.28;;;;;;;;;;5068254;28;24375;-48
2022/06/16 13:12:02;;;;;;;6.60;6.00;;;;;;;;;;5066081;28;24442;-47
2022/06/16 13:14:32;;;;;;;6.63;6.13;;;;;;;;;;5068139;28;24382;-45
2022/06/16 13:16:58;;;;;;;6.20;5.70;;;;;;;;;;5052354;28;24616;-47
2022/06/16 13:19:25;;;;;;;5.88;5.45;;;;;;;;;;5046639;28;24410;-48
2022/06/16 13:21:55;;;;;;;7.30;5.20;;;;;;;;;;5059763;28;24438;-47
2022/06/16 13:24:36;;;;;;;6.50;6.00;;;;;;;;;;5068068;28;24441;-47
2022/06/16 13:27:12;;;;;;;6.70;6.20;;;;;;;;;;5066570;28;24427;-47
2022/06/16 13:30:04;;;;;;;6.43;5.93;;;;;;;;;;5067581;28;24417;-47
2022/06/16 13:32:36;;;;;;;6.40;5.80;;;;;;;;;;5051544;28;24438;-49
2022/06/16 13:35:21;;;;;;;5.88;5.47;;;;;;;;;;5064822;28;24517;-46
2022/06/16 13:37:46;;;;;;;5.90;5.50;;;;;;;;;;5067319;28;24425;-46
2022/06/16 13:40:22;;;;;;;5.70;5.30;;;;;;;;;;5066061;28;24427;-47
2022/06/16 13:42:50;;;;;;;6.13;5.53;;;;;;;;;;5067526;28;24391;-46
2022/06/16 13:45:21;;;;;;;6.20;5.70;;;;;;;;;;5064980;28;25037;-46
2022/06/16 13:48:11;;;;;;;5.40;4.90;;;;;;;;;;5067617;28;24395;-47
2022/06/16 13:50:47;;;;;;;4.80;4.45;;;;;;;;;;5063652;28;24527;-47
2022/06/16 13:53:15;;;;;;;4.97;4.57;;;;;;;;;;5066651;28;24990;-47
2022/06/16 13:55:44;;;;;;;5.35;5.05;;;;;;;;;;5064351;28;25025;-47
2022/06/16 13:58:16;;;;;;;5.63;5.23;;;;;;;;;;5061533;28;24458;-47
2022/06/16 14:00:42;;;;;;;5.57;5.18;;;;;;;;;;5064845;28;24430;-46
2022/06/16 14:03:16;;;;;;;5.10;4.70;;;;;;;;;;5075925;28;24414;-47
2022/06/16 14:05:48;;;;;;;5.73;5.30;;;;;;;;;;5067070;28;24791;-47
2022/06/16 14:08:14;;;;;;;5.72;5.32;;;;;;;;;;5059784;28;24492;-47
2022/06/16 14:10:50;;;;;;;5.95;5.35;;;;;;;;;;5065735;28;24431;-47
2022/06/16 14:13:18;;;;;;;5.90;5.30;;;;;;;;;;5065838;28;24520;-47
2022/06/16 14:15:50;;;;;;;6.40;5.20;;;;;;;;;;5065461;28;25033;-47
2022/06/16 14:18:15;;;;;;;5.60;5.10;;;;;;;;;;5065626;28;24431;-45
2022/06/16 14:20:41;;;;;;;5.30;4.90;;;;;;;;;;5064630;28;24433;-47
2022/06/16 14:23:12;;;;;;;6.18;5.68;;;;;;;;;;5064655;28;24843;-47
2022/06/16 14:25:41;;;;;;;6.03;5.43;;;;;;;;;;5066371;28;25248;-46
2022/06/16 14:28:12;;;;;;;5.60;5.10;;;;;;;;;;5059046;28;25029;-48
2022/06/16 14:30:38;;;;;;;6.03;5.50;;;;;;;;;;5065707;28;24876;-47
2022/06/16 14:33:07;;;;;;;5.30;5.00;;;;;;;;;;5064125;28;24935;-47
2022/06/16 14:35:35;;;;;;;5.90;5.50;;;;;;;;;;5066711;28;24411;-46
2022/06/16 14:38:06;;;;;;;5.88;5.40;;;;;;;;;;5065805;28;24445;-47
2022/06/16 14:40:55;;;;;;;5.68;5.28;;;;;;;;;;5065391;28;25189;-46
2022/06/16 14:43:27;;;;;;;5.60;5.10;;;;;;;;;;5035159;28;24447;-47
2022/06/16 14:45:59;;;;;;;5.70;5.30;;;;;;;;;;5064022;28;24591;-47
2022/06/16 14:48:27;;;;;;;6.00;5.50;;;;;;;;;;5065429;28;24936;-47
2022/06/16 14:50:56;;;;;;;6.80;6.20;;;;;;;;;;5065472;28;24732;-46
2022/06/16 14:53:24;;;;;;;6.38;5.88;;;;;;;;;;5065179;28;24487;-46
2022/06/16 14:55:53;;;;;;;6.07;5.60;;;;;;;;;;5065764;28;24413;-46
2022/06/16 14:58:19;;;;;;;5.80;5.40;;;;;;;;;;5066600;28;24402;-46
2022/06/16 15:00:47;;;;;;;5.60;5.10;;;;;;;;;;5064513;28;24504;-47
2022/06/16 15:03:15;;;;;;;5.30;4.80;;;;;;;;;;5066474;28;24403;-46
2022/06/16 15:05:42;;;;;;;6.00;5.50;;;;;;;;;;5064207;28;24972;-47
2022/06/16 15:08:08;;;;;;;6.70;5.35;;;;;;;;;;5065729;28;24418;-46
2022/06/16 15:10:35;;;;;;;5.70;5.30;;;;;;;;;;5066861;28;24955;-46
2022/06/16 15:13:03;;;;;;;5.32;4.90;;;;;;;;;;5067244;28;24511;-47